sensor_id;sensor_type;location;lat;lon;timestamp;P1;durP1;ratioP1;P2;durP2;ratioP2
52029;SDS011;38043;53.224;6.580;2023-04-03T00:01:29;3.97;;;1.70;;
52029;SDS011;38043;53.224;6.580;2023-04-03T00:03:55;2.40;;;1.40;;
52029;SDS011;38043;53.224;6.580;2023-04-03T00:06:21;4.88;;;1.50;;
52029;SDS011;38043;53.224;6.580;2023-04-03T00:08:48;7.28;;;1.85;;
52029;SDS011;38043;53.224;6.580;2023-04-03T00:11:14;3.45;;;1.20;;
52029;SDS011;38043;53.224;6.580;2023-04-03T00:13:41;4.35;;;1.67;;
52029;SDS011;38043;53.224;6.580;2023-04-03T00:16:07;2.47;;;1.38;;
52029;SDS011;38043;53.224;6.580;2023-04-03T00:18:34;2.97;;;1.30;;
52029;SDS011;38043;53.224;6.580;2023-04-03T00:21:00;7.47;;;1.60;;
52029;SDS011;38043;53.224;6.580;2023-04-03T00:23:26;3.90;;;1.33;;
52029;SDS011;38043;53.224;6.580;2023-04-03T00:25:52;2.33;;;1.10;;
52029;SDS011;38043;53.224;6.580;2023-04-03T00:28:18;2.47;;;1.20;;
52029;SDS011;38043;53.224;6.580;2023-04-03T00:30:44;2.20;;;1.17;;
52029;SDS011;38043;53.224;6.580;2023-04-03T00:33:13;4.63;;;1.30;;
52029;SDS011;38043;53.224;6.580;2023-04-03T00:35:39;3.83;;;1.27;;
52029;SDS011;38043;53.224;6.580;2023-04-03T00:38:05;3.65;;;1.95;;
52029;SDS011;38043;53.224;6.580;2023-04-03T00:40:35;3.20;;;1.25;;
52029;SDS011;38043;53.224;6.580;2023-04-03T00:43:05;4.57;;;1.40;;
52029;SDS011;38043;53.224;6.580;2023-04-03T00:45:38;6.53;;;2.10;;
52029;SDS011;38043;53.224;6.580;2023-04-03T00:50:34;2.70;;;1.33;;
52029;SDS011;38043;53.224;6.580;2023-04-03T00:53:04;5.57;;;1.50;;
52029;SDS011;38043;53.224;6.580;2023-04-03T00:55:31;3.88;;;1.50;;
52029;SDS011;38043;53.224;6.580;2023-04-03T00:57:58;6.88;;;1.58;;
52029;SDS011;38043;53.224;6.580;2023-04-03T01:00:26;10.05;;;1.98;;
52029;SDS011;38043;53.224;6.580;2023-04-03T01:02:53;5.43;;;1.45;;
52029;SDS011;38043;53.224;6.580;2023-04-03T01:05:19;3.65;;;1.50;;
52029;SDS011;38043;53.224;6.580;2023-04-03T01:07:46;5.30;;;1.53;;
52029;SDS011;38043;53.224;6.580;2023-04-03T01:10:13;6.97;;;1.90;;
52029;SDS011;38043;53.224;6.580;2023-04-03T01:12:43;10.10;;;1.98;;
52029;SDS011;38043;53.224;6.580;2023-04-03T01:17:39;5.05;;;1.50;;
52029;SDS011;38043;53.224;6.580;2023-04-03T01:25:28;5.45;;;1.50;;
52029;SDS011;38043;53.224;6.580;2023-04-03T01:27:54;5.47;;;1.67;;
52029;SDS011;38043;53.224;6.580;2023-04-03T01:30:21;5.93;;;1.83;;
52029;SDS011;38043;53.224;6.580;2023-04-03T01:32:50;4.40;;;1.23;;
52029;SDS011;38043;53.224;6.580;2023-04-03T01:35:16;4.10;;;2.00;;
52029;SDS011;38043;53.224;6.580;2023-04-03T01:37:41;8.88;;;2.08;;
52029;SDS011;38043;53.224;6.580;2023-04-03T01:40:07;5.35;;;1.90;;
52029;SDS011;38043;53.224;6.580;2023-04-03T01:42:33;7.60;;;1.90;;
52029;SDS011;38043;53.224;6.580;2023-04-03T01:44:59;6.13;;;2.15;;
52029;SDS011;38043;53.224;6.580;2023-04-03T01:47:25;3.10;;;1.60;;
52029;SDS011;38043;53.224;6.580;2023-04-03T01:49:50;5.60;;;1.90;;
52029;SDS011;38043;53.224;6.580;2023-04-03T01:52:16;5.53;;;1.90;;
52029;SDS011;38043;53.224;6.580;2023-04-03T01:54:42;6.35;;;1.70;;
52029;SDS011;38043;53.224;6.580;2023-04-03T01:57:07;5.68;;;1.90;;
52029;SDS011;38043;53.224;6.580;2023-04-03T01:59:33;5.28;;;1.80;;
52029;SDS011;38043;53.224;6.580;2023-04-03T02:01:59;6.13;;;2.20;;
52029;SDS011;38043;53.224;6.580;2023-04-03T02:04:24;3.70;;;1.58;;
52029;SDS011;38043;53.224;6.580;2023-04-03T02:06:50;6.15;;;1.80;;
52029;SDS011;38043;53.224;6.580;2023-04-03T02:09:16;5.47;;;1.90;;
52029;SDS011;38043;53.224;6.580;2023-04-03T02:11:41;8.60;;;1.85;;
52029;SDS011;38043;53.224;6.580;2023-04-03T02:14:07;5.82;;;2.00;;
52029;SDS011;38043;53.224;6.580;2023-04-03T02:16:33;6.35;;;1.63;;
52029;SDS011;38043;53.224;6.580;2023-04-03T02:18:58;5.43;;;1.92;;
52029;SDS011;38043;53.224;6.580;2023-04-03T02:21:24;11.65;;;2.55;;
52029;SDS011;38043;53.224;6.580;2023-04-03T02:23:49;6.57;;;2.30;;
52029;SDS011;38043;53.224;6.580;2023-04-03T02:26:16;5.45;;;2.00;;
52029;SDS011;38043;53.224;6.580;2023-04-03T02:28:41;5.43;;;1.73;;
52029;SDS011;38043;53.224;6.580;2023-04-03T02:31:08;5.10;;;1.85;;
52029;SDS011;38043;53.224;6.580;2023-04-03T02:33:35;7.65;;;1.92;;
52029;SDS011;38043;53.224;6.580;2023-04-03T02:36:02;4.50;;;2.13;;
52029;SDS011;38043;53.224;6.580;2023-04-03T02:38:31;5.88;;;1.80;;
52029;SDS011;38043;53.224;6.580;2023-04-03T02:41:01;7.88;;;1.77;;
52029;SDS011;38043;53.224;6.580;2023-04-03T02:43:32;7.95;;;2.10;;
52029;SDS011;38043;53.224;6.580;2023-04-03T02:45:58;6.97;;;1.85;;
52029;SDS011;38043;53.224;6.580;2023-04-03T02:48:24;8.77;;;1.92;;
52029;SDS011;38043;53.224;6.580;2023-04-03T02:50:50;6.97;;;1.88;;
52029;SDS011;38043;53.224;6.580;2023-04-03T02:53:16;6.78;;;2.22;;
52029;SDS011;38043;53.224;6.580;2023-04-03T02:55:42;10.23;;;2.35;;
52029;SDS011;38043;53.224;6.580;2023-04-03T02:58:07;10.07;;;1.95;;
52029;SDS011;38043;53.224;6.580;2023-04-03T03:00:33;14.23;;;2.80;;
52029;SDS011;38043;53.224;6.580;2023-04-03T03:02:59;8.68;;;1.90;;
52029;SDS011;38043;53.224;6.580;2023-04-03T03:05:25;8.35;;;2.28;;
52029;SDS011;38043;53.224;6.580;2023-04-03T03:07:52;6.57;;;2.28;;
52029;SDS011;38043;53.224;6.580;2023-04-03T03:10:18;4.38;;;2.10;;
52029;SDS011;38043;53.224;6.580;2023-04-03T03:12:44;4.30;;;1.80;;
52029;SDS011;38043;53.224;6.580;2023-04-03T03:15:10;4.75;;;1.92;;
52029;SDS011;38043;53.224;6.580;2023-04-03T03:17:36;5.80;;;1.95;;
52029;SDS011;38043;53.224;6.580;2023-04-03T03:20:03;6.30;;;2.17;;
52029;SDS011;38043;53.224;6.580;2023-04-03T03:22:30;5.93;;;2.05;;
52029;SDS011;38043;53.224;6.580;2023-04-03T03:24:55;8.48;;;1.83;;
52029;SDS011;38043;53.224;6.580;2023-04-03T03:27:21;9.43;;;2.17;;
52029;SDS011;38043;53.224;6.580;2023-04-03T03:29:47;9.73;;;2.30;;
52029;SDS011;38043;53.224;6.580;2023-04-03T03:32:12;9.57;;;1.95;;
52029;SDS011;38043;53.224;6.580;2023-04-03T03:34:38;6.60;;;2.08;;
52029;SDS011;38043;53.224;6.580;2023-04-03T03:37:04;6.90;;;2.28;;
52029;SDS011;38043;53.224;6.580;2023-04-03T03:39:30;10.00;;;2.30;;
52029;SDS011;38043;53.224;6.580;2023-04-03T03:41:55;7.55;;;2.53;;
52029;SDS011;38043;53.224;6.580;2023-04-03T03:44:21;9.18;;;2.28;;
52029;SDS011;38043;53.224;6.580;2023-04-03T03:46:47;10.48;;;2.33;;
52029;SDS011;38043;53.224;6.580;2023-04-03T03:49:12;5.45;;;2.20;;
52029;SDS011;38043;53.224;6.580;2023-04-03T03:51:38;7.68;;;2.30;;
52029;SDS011;38043;53.224;6.580;2023-04-03T03:54:04;5.22;;;2.10;;
52029;SDS011;38043;53.224;6.580;2023-04-03T03:56:30;7.70;;;2.00;;
52029;SDS011;38043;53.224;6.580;2023-04-03T03:58:56;12.48;;;2.40;;
52029;SDS011;38043;53.224;6.580;2023-04-03T04:01:22;14.10;;;3.03;;
52029;SDS011;38043;53.224;6.580;2023-04-03T04:03:49;11.83;;;2.40;;
52029;SDS011;38043;53.224;6.580;2023-04-03T04:06:15;10.80;;;3.13;;
52029;SDS011;38043;53.224;6.580;2023-04-03T04:08:41;5.28;;;2.40;;
52029;SDS011;38043;53.224;6.580;2023-04-03T04:11:08;10.93;;;2.22;;
52029;SDS011;38043;53.224;6.580;2023-04-03T04:13:34;5.97;;;2.15;;
52029;SDS011;38043;53.224;6.580;2023-04-03T04:16:00;12.80;;;2.55;;
52029;SDS011;38043;53.224;6.580;2023-04-03T04:18:26;8.70;;;2.42;;
52029;SDS011;38043;53.224;6.580;2023-04-03T04:20:51;4.75;;;2.40;;
52029;SDS011;38043;53.224;6.580;2023-04-03T04:23:17;8.20;;;2.97;;
52029;SDS011;38043;53.224;6.580;2023-04-03T04:25:47;7.75;;;2.33;;
52029;SDS011;38043;53.224;6.580;2023-04-03T04:28:14;5.35;;;2.33;;
52029;SDS011;38043;53.224;6.580;2023-04-03T04:30:40;6.25;;;2.35;;
52029;SDS011;38043;53.224;6.580;2023-04-03T04:33:06;7.63;;;2.65;;
52029;SDS011;38043;53.224;6.580;2023-04-03T04:35:32;8.65;;;2.63;;
52029;SDS011;38043;53.224;6.580;2023-04-03T04:37:58;12.32;;;2.60;;
52029;SDS011;38043;53.224;6.580;2023-04-03T04:40:23;7.85;;;2.45;;
52029;SDS011;38043;53.224;6.580;2023-04-03T04:42:49;12.07;;;3.33;;
52029;SDS011;38043;53.224;6.580;2023-04-03T04:45:15;11.80;;;3.33;;
52029;SDS011;38043;53.224;6.580;2023-04-03T04:47:41;8.30;;;2.38;;
52029;SDS011;38043;53.224;6.580;2023-04-03T04:50:07;7.95;;;2.80;;
52029;SDS011;38043;53.224;6.580;2023-04-03T04:52:33;11.65;;;3.75;;
52029;SDS011;38043;53.224;6.580;2023-04-03T04:54:59;10.82;;;2.75;;
52029;SDS011;38043;53.224;6.580;2023-04-03T04:57:25;10.73;;;3.17;;
52029;SDS011;38043;53.224;6.580;2023-04-03T04:59:50;10.20;;;2.88;;
52029;SDS011;38043;53.224;6.580;2023-04-03T05:02:16;7.97;;;3.03;;
52029;SDS011;38043;53.224;6.580;2023-04-03T05:04:42;7.00;;;2.85;;
52029;SDS011;38043;53.224;6.580;2023-04-03T05:07:08;11.70;;;2.92;;
52029;SDS011;38043;53.224;6.580;2023-04-03T05:09:34;13.07;;;3.25;;
52029;SDS011;38043;53.224;6.580;2023-04-03T05:12:00;7.35;;;2.88;;
52029;SDS011;38043;53.224;6.580;2023-04-03T05:14:26;10.95;;;3.22;;
52029;SDS011;38043;53.224;6.580;2023-04-03T05:16:52;10.23;;;3.30;;
52029;SDS011;38043;53.224;6.580;2023-04-03T05:19:19;9.23;;;3.20;;
52029;SDS011;38043;53.224;6.580;2023-04-03T05:21:48;13.43;;;3.10;;
52029;SDS011;38043;53.224;6.580;2023-04-03T05:24:14;9.13;;;3.25;;
52029;SDS011;38043;53.224;6.580;2023-04-03T05:26:41;7.10;;;2.58;;
52029;SDS011;38043;53.224;6.580;2023-04-03T05:29:07;8.15;;;2.67;;
52029;SDS011;38043;53.224;6.580;2023-04-03T05:31:33;7.25;;;2.97;;
52029;SDS011;38043;53.224;6.580;2023-04-03T05:33:58;10.90;;;3.03;;
52029;SDS011;38043;53.224;6.580;2023-04-03T05:36:24;9.13;;;2.80;;
52029;SDS011;38043;53.224;6.580;2023-04-03T05:38:50;9.82;;;2.95;;
52029;SDS011;38043;53.224;6.580;2023-04-03T05:41:17;12.80;;;3.10;;
52029;SDS011;38043;53.224;6.580;2023-04-03T05:43:43;6.85;;;2.58;;
52029;SDS011;38043;53.224;6.580;2023-04-03T05:46:12;5.47;;;2.60;;
52029;SDS011;38043;53.224;6.580;2023-04-03T05:48:41;15.95;;;3.33;;
52029;SDS011;38043;53.224;6.580;2023-04-03T05:51:09;9.80;;;3.47;;
52029;SDS011;38043;53.224;6.580;2023-04-03T05:53:43;8.10;;;2.78;;
52029;SDS011;38043;53.224;6.580;2023-04-03T05:56:10;8.10;;;2.67;;
52029;SDS011;38043;53.224;6.580;2023-04-03T05:58:36;8.75;;;2.60;;
52029;SDS011;38043;53.224;6.580;2023-04-03T06:01:01;9.27;;;3.22;;
52029;SDS011;38043;53.224;6.580;2023-04-03T06:03:27;8.63;;;2.78;;
52029;SDS011;38043;53.224;6.580;2023-04-03T06:05:53;10.18;;;2.88;;
52029;SDS011;38043;53.224;6.580;2023-04-03T06:08:19;7.93;;;2.65;;
52029;SDS011;38043;53.224;6.580;2023-04-03T06:10:45;8.60;;;2.88;;
52029;SDS011;38043;53.224;6.580;2023-04-03T06:13:11;9.15;;;2.67;;
52029;SDS011;38043;53.224;6.580;2023-04-03T06:15:37;7.93;;;2.80;;
52029;SDS011;38043;53.224;6.580;2023-04-03T06:18:04;8.98;;;2.90;;
52029;SDS011;38043;53.224;6.580;2023-04-03T06:20:31;8.40;;;2.70;;
52029;SDS011;38043;53.224;6.580;2023-04-03T06:22:57;10.68;;;2.88;;
52029;SDS011;38043;53.224;6.580;2023-04-03T06:25:23;9.85;;;3.30;;
52029;SDS011;38043;53.224;6.580;2023-04-03T06:27:49;11.50;;;2.97;;
52029;SDS011;38043;53.224;6.580;2023-04-03T06:30:15;13.25;;;3.25;;
52029;SDS011;38043;53.224;6.580;2023-04-03T06:32:40;9.13;;;2.92;;
52029;SDS011;38043;53.224;6.580;2023-04-03T06:35:06;8.40;;;2.40;;
52029;SDS011;38043;53.224;6.580;2023-04-03T06:37:32;10.20;;;3.00;;
52029;SDS011;38043;53.224;6.580;2023-04-03T06:39:58;6.82;;;2.97;;
52029;SDS011;38043;53.224;6.580;2023-04-03T06:42:25;12.55;;;3.20;;
52029;SDS011;38043;53.224;6.580;2023-04-03T06:44:51;9.43;;;3.13;;
52029;SDS011;38043;53.224;6.580;2023-04-03T06:47:17;10.80;;;4.10;;
52029;SDS011;38043;53.224;6.580;2023-04-03T06:49:42;14.00;;;4.05;;
52029;SDS011;38043;53.224;6.580;2023-04-03T06:52:09;8.52;;;2.83;;
52029;SDS011;38043;53.224;6.580;2023-04-03T06:54:35;8.57;;;2.90;;
52029;SDS011;38043;53.224;6.580;2023-04-03T06:57:01;7.60;;;2.97;;
52029;SDS011;38043;53.224;6.580;2023-04-03T06:59:27;9.00;;;3.10;;
52029;SDS011;38043;53.224;6.580;2023-04-03T07:01:53;8.57;;;3.22;;
52029;SDS011;38043;53.224;6.580;2023-04-03T07:04:18;8.43;;;2.58;;
52029;SDS011;38043;53.224;6.580;2023-04-03T07:06:47;8.18;;;2.95;;
52029;SDS011;38043;53.224;6.580;2023-04-03T07:09:14;8.88;;;3.10;;
52029;SDS011;38043;53.224;6.580;2023-04-03T07:11:40;9.82;;;3.03;;
52029;SDS011;38043;53.224;6.580;2023-04-03T07:14:05;10.07;;;2.90;;
52029;SDS011;38043;53.224;6.580;2023-04-03T07:16:33;8.20;;;3.00;;
52029;SDS011;38043;53.224;6.580;2023-04-03T07:18:59;9.43;;;3.53;;
52029;SDS011;38043;53.224;6.580;2023-04-03T07:21:26;11.27;;;2.92;;
52029;SDS011;38043;53.224;6.580;2023-04-03T07:23:53;8.30;;;3.05;;
52029;SDS011;38043;53.224;6.580;2023-04-03T07:26:19;9.15;;;2.50;;
52029;SDS011;38043;53.224;6.580;2023-04-03T07:28:46;10.48;;;2.80;;
52029;SDS011;38043;53.224;6.580;2023-04-03T07:31:13;14.43;;;3.80;;
52029;SDS011;38043;53.224;6.580;2023-04-03T07:33:41;7.35;;;2.63;;
52029;SDS011;38043;53.224;6.580;2023-04-03T07:36:08;7.35;;;3.00;;
52029;SDS011;38043;53.224;6.580;2023-04-03T07:38:35;5.68;;;2.58;;
52029;SDS011;38043;53.224;6.580;2023-04-03T07:41:01;10.55;;;3.20;;
52029;SDS011;38043;53.224;6.580;2023-04-03T07:43:28;8.50;;;3.78;;
52029;SDS011;38043;53.224;6.580;2023-04-03T07:45:54;7.82;;;2.83;;
52029;SDS011;38043;53.224;6.580;2023-04-03T07:48:20;9.57;;;3.15;;
52029;SDS011;38043;53.224;6.580;2023-04-03T07:50:47;9.82;;;2.70;;
52029;SDS011;38043;53.224;6.580;2023-04-03T07:53:13;9.95;;;2.60;;
52029;SDS011;38043;53.224;6.580;2023-04-03T07:55:39;6.70;;;2.60;;
52029;SDS011;38043;53.224;6.580;2023-04-03T07:58:11;7.78;;;2.72;;
52029;SDS011;38043;53.224;6.580;2023-04-03T08:00:38;8.32;;;2.75;;
52029;SDS011;38043;53.224;6.580;2023-04-03T08:03:04;7.10;;;2.30;;
52029;SDS011;38043;53.224;6.580;2023-04-03T08:05:31;8.35;;;2.97;;
52029;SDS011;38043;53.224;6.580;2023-04-03T08:07:57;9.73;;;2.80;;
52029;SDS011;38043;53.224;6.580;2023-04-03T08:10:22;6.68;;;2.30;;
52029;SDS011;38043;53.224;6.580;2023-04-03T08:12:48;10.45;;;2.53;;
52029;SDS011;38043;53.224;6.580;2023-04-03T08:15:14;8.90;;;2.45;;
52029;SDS011;38043;53.224;6.580;2023-04-03T08:17:40;9.00;;;2.65;;
52029;SDS011;38043;53.224;6.580;2023-04-03T08:20:06;6.60;;;2.22;;
52029;SDS011;38043;53.224;6.580;2023-04-03T08:22:33;7.90;;;2.80;;
52029;SDS011;38043;53.224;6.580;2023-04-03T08:24:59;5.03;;;2.47;;
52029;SDS011;38043;53.224;6.580;2023-04-03T08:27:26;6.65;;;2.15;;
52029;SDS011;38043;53.224;6.580;2023-04-03T08:29:52;6.35;;;2.53;;
52029;SDS011;38043;53.224;6.580;2023-04-03T08:32:17;6.93;;;2.30;;
52029;SDS011;38043;53.224;6.580;2023-04-03T08:34:43;9.48;;;2.80;;
52029;SDS011;38043;53.224;6.580;2023-04-03T08:37:09;9.63;;;2.47;;
52029;SDS011;38043;53.224;6.580;2023-04-03T08:39:35;9.77;;;2.58;;
52029;SDS011;38043;53.224;6.580;2023-04-03T08:42:02;6.15;;;2.50;;
52029;SDS011;38043;53.224;6.580;2023-04-03T08:44:47;8.85;;;2.50;;
52029;SDS011;38043;53.224;6.580;2023-04-03T08:47:25;6.00;;;2.42;;
52029;SDS011;38043;53.224;6.580;2023-04-03T08:50:02;5.50;;;2.20;;
52029;SDS011;38043;53.224;6.580;2023-04-03T08:52:39;6.80;;;2.42;;
52029;SDS011;38043;53.224;6.580;2023-04-03T08:57:53;6.88;;;2.28;;
52029;SDS011;38043;53.224;6.580;2023-04-03T09:00:28;7.00;;;2.13;;
52029;SDS011;38043;53.224;6.580;2023-04-03T09:03:13;5.25;;;1.77;;
52029;SDS011;38043;53.224;6.580;2023-04-03T09:08:36;5.10;;;2.17;;
52029;SDS011;38043;53.224;6.580;2023-04-03T09:11:24;7.38;;;2.15;;
52029;SDS011;38043;53.224;6.580;2023-04-03T09:13:57;5.95;;;1.80;;
52029;SDS011;38043;53.224;6.580;2023-04-03T09:16:48;3.75;;;1.70;;
52029;SDS011;38043;53.224;6.580;2023-04-03T09:22:07;9.05;;;1.73;;
52029;SDS011;38043;53.224;6.580;2023-04-03T09:24:55;3.95;;;1.48;;
52029;SDS011;38043;53.224;6.580;2023-04-03T09:27:30;5.78;;;1.90;;
52029;SDS011;38043;53.224;6.580;2023-04-03T09:29:56;3.08;;;1.50;;
52029;SDS011;38043;53.224;6.580;2023-04-03T09:32:27;5.47;;;2.30;;
52029;SDS011;38043;53.224;6.580;2023-04-03T09:35:02;4.50;;;1.60;;
52029;SDS011;38043;53.224;6.580;2023-04-03T09:40:04;3.40;;;1.30;;
52029;SDS011;38043;53.224;6.580;2023-04-03T09:42:31;6.00;;;1.80;;
52029;SDS011;38043;53.224;6.580;2023-04-03T09:44:59;4.03;;;1.52;;
52029;SDS011;38043;53.224;6.580;2023-04-03T09:47:30;7.35;;;1.65;;
52029;SDS011;38043;53.224;6.580;2023-04-03T09:52:43;3.55;;;1.80;;
52029;SDS011;38043;53.224;6.580;2023-04-03T09:55:15;5.38;;;1.50;;
52029;SDS011;38043;53.224;6.580;2023-04-03T09:57:42;4.15;;;1.70;;
52029;SDS011;38043;53.224;6.580;2023-04-03T10:00:53;6.72;;;1.90;;
52029;SDS011;38043;53.224;6.580;2023-04-03T10:03:02;3.50;;;1.40;;
52029;SDS011;38043;53.224;6.580;2023-04-03T10:10:43;6.78;;;1.50;;
52029;SDS011;38043;53.224;6.580;2023-04-03T10:13:11;4.35;;;1.40;;
52029;SDS011;38043;53.224;6.580;2023-04-03T10:15:40;3.67;;;1.48;;
52029;SDS011;38043;53.224;6.580;2023-04-03T10:24:10;5.05;;;1.42;;
52029;SDS011;38043;53.224;6.580;2023-04-03T10:26:50;3.78;;;1.50;;
52029;SDS011;38043;53.224;6.580;2023-04-03T10:34:43;4.90;;;1.50;;
52029;SDS011;38043;53.224;6.580;2023-04-03T10:39:53;4.30;;;1.35;;
52029;SDS011;38043;53.224;6.580;2023-04-03T10:51:16;4.72;;;1.48;;
52029;SDS011;38043;53.224;6.580;2023-04-03T10:54:13;4.72;;;1.20;;
52029;SDS011;38043;53.224;6.580;2023-04-03T10:57:02;2.90;;;1.30;;
52029;SDS011;38043;53.224;6.580;2023-04-03T11:02:24;2.35;;;1.30;;
52029;SDS011;38043;53.224;6.580;2023-04-03T11:04:54;4.20;;;1.40;;
52029;SDS011;38043;53.224;6.580;2023-04-03T11:07:27;3.05;;;1.45;;
52029;SDS011;38043;53.224;6.580;2023-04-03T11:10:00;3.08;;;1.30;;
52029;SDS011;38043;53.224;6.580;2023-04-03T11:12:40;6.85;;;1.63;;
52029;SDS011;38043;53.224;6.580;2023-04-03T11:15:45;6.45;;;1.63;;
52029;SDS011;38043;53.224;6.580;2023-04-03T11:18:19;3.45;;;1.60;;
52029;SDS011;38043;53.224;6.580;2023-04-03T11:21:34;2.15;;;1.27;;
52029;SDS011;38043;53.224;6.580;2023-04-03T11:23:45;3.85;;;1.52;;
52029;SDS011;38043;53.224;6.580;2023-04-03T11:26:12;3.08;;;1.30;;
52029;SDS011;38043;53.224;6.580;2023-04-03T11:28:40;3.75;;;1.45;;
52029;SDS011;38043;53.224;6.580;2023-04-03T11:36:32;3.63;;;1.52;;
52029;SDS011;38043;53.224;6.580;2023-04-03T11:39:16;13.43;;;1.52;;
52029;SDS011;38043;53.224;6.580;2023-04-03T11:42:12;3.67;;;1.60;;
52029;SDS011;38043;53.224;6.580;2023-04-03T11:44:39;3.78;;;1.30;;
52029;SDS011;38043;53.224;6.580;2023-04-03T11:47:05;3.00;;;1.35;;
52029;SDS011;38043;53.224;6.580;2023-04-03T12:16:19;6.30;;;1.67;;
52029;SDS011;38043;53.224;6.580;2023-04-03T12:21:14;4.05;;;1.33;;
52029;SDS011;38043;53.224;6.580;2023-04-03T12:23:58;3.33;;;1.38;;
52029;SDS011;38043;53.224;6.580;2023-04-03T12:26:32;3.70;;;1.70;;
52029;SDS011;38043;53.224;6.580;2023-04-03T12:29:21;2.83;;;1.50;;
52029;SDS011;38043;53.224;6.580;2023-04-03T12:46:11;4.57;;;1.67;;
52029;SDS011;38043;53.224;6.580;2023-04-03T12:51:13;3.47;;;1.60;;
52029;SDS011;38043;53.224;6.580;2023-04-03T12:53:43;2.83;;;1.17;;
52029;SDS011;38043;53.224;6.580;2023-04-03T12:56:26;3.80;;;1.42;;
52029;SDS011;38043;53.224;6.580;2023-04-03T12:58:54;3.95;;;1.30;;
52029;SDS011;38043;53.224;6.580;2023-04-03T13:01:39;4.22;;;1.30;;
52029;SDS011;38043;53.224;6.580;2023-04-03T13:04:05;3.15;;;1.40;;
52029;SDS011;38043;53.224;6.580;2023-04-03T13:06:32;1.67;;;1.02;;
52029;SDS011;38043;53.224;6.580;2023-04-03T13:09:04;4.22;;;1.30;;
52029;SDS011;38043;53.224;6.580;2023-04-03T13:11:33;2.65;;;1.48;;
52029;SDS011;38043;53.224;6.580;2023-04-03T13:14:02;3.60;;;1.10;;
52029;SDS011;38043;53.224;6.580;2023-04-03T13:16:30;2.15;;;1.10;;
52029;SDS011;38043;53.224;6.580;2023-04-03T13:18:57;3.85;;;1.40;;
52029;SDS011;38043;53.224;6.580;2023-04-03T13:21:27;5.03;;;1.40;;
52029;SDS011;38043;53.224;6.580;2023-04-03T13:23:56;3.45;;;1.38;;
52029;SDS011;38043;53.224;6.580;2023-04-03T13:26:29;2.10;;;1.10;;
52029;SDS011;38043;53.224;6.580;2023-04-03T13:29:02;2.95;;;1.30;;
52029;SDS011;38043;53.224;6.580;2023-04-03T13:31:35;4.63;;;1.50;;
52029;SDS011;38043;53.224;6.580;2023-04-03T13:36:38;2.58;;;1.33;;
52029;SDS011;38043;53.224;6.580;2023-04-03T13:39:32;3.15;;;1.20;;
52029;SDS011;38043;53.224;6.580;2023-04-03T13:42:01;3.28;;;1.50;;
52029;SDS011;38043;53.224;6.580;2023-04-03T13:44:47;4.93;;;1.55;;
52029;SDS011;38043;53.224;6.580;2023-04-03T13:47:15;4.22;;;1.95;;
52029;SDS011;38043;53.224;6.580;2023-04-03T13:49:44;5.07;;;1.70;;
52029;SDS011;38043;53.224;6.580;2023-04-03T13:52:29;5.28;;;1.67;;
52029;SDS011;38043;53.224;6.580;2023-04-03T14:00:33;3.28;;;1.40;;
52029;SDS011;38043;53.224;6.580;2023-04-03T14:03:23;3.30;;;1.58;;
52029;SDS011;38043;53.224;6.580;2023-04-03T14:05:51;5.47;;;1.60;;
52029;SDS011;38043;53.224;6.580;2023-04-03T14:08:18;6.05;;;1.50;;
52029;SDS011;38043;53.224;6.580;2023-04-03T14:10:44;5.43;;;2.25;;
52029;SDS011;38043;53.224;6.580;2023-04-03T14:13:13;3.70;;;1.92;;
52029;SDS011;38043;53.224;6.580;2023-04-03T14:15:40;4.13;;;1.55;;
52029;SDS011;38043;53.224;6.580;2023-04-03T14:18:10;3.55;;;1.42;;
52029;SDS011;38043;53.224;6.580;2023-04-03T14:20:37;5.03;;;1.67;;
52029;SDS011;38043;53.224;6.580;2023-04-03T14:23:03;5.75;;;1.77;;
52029;SDS011;38043;53.224;6.580;2023-04-03T14:25:29;3.53;;;1.58;;
52029;SDS011;38043;53.224;6.580;2023-04-03T14:27:54;4.25;;;1.70;;
52029;SDS011;38043;53.224;6.580;2023-04-03T14:30:22;5.25;;;1.58;;
52029;SDS011;38043;53.224;6.580;2023-04-03T14:32:51;4.28;;;1.75;;
52029;SDS011;38043;53.224;6.580;2023-04-03T14:35:17;2.47;;;1.30;;
52029;SDS011;38043;53.224;6.580;2023-04-03T14:37:44;3.78;;;1.67;;
52029;SDS011;38043;53.224;6.580;2023-04-03T14:40:22;5.63;;;1.50;;
52029;SDS011;38043;53.224;6.580;2023-04-03T14:42:50;3.00;;;1.27;;
52029;SDS011;38043;53.224;6.580;2023-04-03T14:45:19;4.65;;;1.63;;
52029;SDS011;38043;53.224;6.580;2023-04-03T14:47:50;3.08;;;1.42;;
52029;SDS011;38043;53.224;6.580;2023-04-03T14:50:19;4.22;;;1.50;;
52029;SDS011;38043;53.224;6.580;2023-04-03T14:52:46;4.25;;;1.00;;
52029;SDS011;38043;53.224;6.580;2023-04-03T14:55:17;5.13;;;1.50;;
52029;SDS011;38043;53.224;6.580;2023-04-03T14:57:43;7.65;;;1.60;;
52029;SDS011;38043;53.224;6.580;2023-04-03T15:00:13;6.28;;;1.60;;
52029;SDS011;38043;53.224;6.580;2023-04-03T15:02:41;2.75;;;1.20;;
52029;SDS011;38043;53.224;6.580;2023-04-03T15:05:10;5.60;;;1.50;;
52029;SDS011;38043;53.224;6.580;2023-04-03T15:07:37;4.03;;;1.65;;
52029;SDS011;38043;53.224;6.580;2023-04-03T15:12:39;3.65;;;1.80;;
52029;SDS011;38043;53.224;6.580;2023-04-03T15:15:05;3.85;;;1.48;;
52029;SDS011;38043;53.224;6.580;2023-04-03T15:17:31;4.40;;;1.48;;
52029;SDS011;38043;53.224;6.580;2023-04-03T15:19:58;2.78;;;1.55;;
52029;SDS011;38043;53.224;6.580;2023-04-03T15:22:24;4.00;;;1.83;;
52029;SDS011;38043;53.224;6.580;2023-04-03T15:24:50;3.80;;;1.55;;
52029;SDS011;38043;53.224;6.580;2023-04-03T15:27:15;2.35;;;1.40;;
52029;SDS011;38043;53.224;6.580;2023-04-03T15:29:41;7.15;;;1.70;;
52029;SDS011;38043;53.224;6.580;2023-04-03T15:32:09;2.67;;;1.20;;
52029;SDS011;38043;53.224;6.580;2023-04-03T15:34:36;4.32;;;1.63;;
52029;SDS011;38043;53.224;6.580;2023-04-03T15:37:02;4.03;;;1.50;;
52029;SDS011;38043;53.224;6.580;2023-04-03T15:39:27;3.60;;;1.10;;
52029;SDS011;38043;53.224;6.580;2023-04-03T15:41:54;2.38;;;1.13;;
52029;SDS011;38043;53.224;6.580;2023-04-03T15:44:20;5.80;;;1.58;;
52029;SDS011;38043;53.224;6.580;2023-04-03T15:46:46;3.05;;;2.10;;
52029;SDS011;38043;53.224;6.580;2023-04-03T15:49:16;2.50;;;1.30;;
52029;SDS011;38043;53.224;6.580;2023-04-03T15:51:44;2.63;;;1.30;;
52029;SDS011;38043;53.224;6.580;2023-04-03T15:54:09;3.95;;;1.70;;
52029;SDS011;38043;53.224;6.580;2023-04-03T15:56:35;5.30;;;1.38;;
52029;SDS011;38043;53.224;6.580;2023-04-03T15:59:01;2.55;;;1.20;;
52029;SDS011;38043;53.224;6.580;2023-04-03T16:01:27;4.00;;;1.30;;
52029;SDS011;38043;53.224;6.580;2023-04-03T16:03:53;5.50;;;1.60;;
52029;SDS011;38043;53.224;6.580;2023-04-03T16:06:19;5.13;;;1.42;;
52029;SDS011;38043;53.224;6.580;2023-04-03T16:08:46;3.45;;;1.40;;
52029;SDS011;38043;53.224;6.580;2023-04-03T16:11:12;4.53;;;1.20;;
52029;SDS011;38043;53.224;6.580;2023-04-03T16:13:38;3.85;;;1.05;;
52029;SDS011;38043;53.224;6.580;2023-04-03T16:16:04;2.55;;;1.15;;
52029;SDS011;38043;53.224;6.580;2023-04-03T16:18:30;2.65;;;1.20;;
52029;SDS011;38043;53.224;6.580;2023-04-03T16:20:56;2.35;;;1.10;;
52029;SDS011;38043;53.224;6.580;2023-04-03T16:23:22;6.10;;;1.52;;
52029;SDS011;38043;53.224;6.580;2023-04-03T16:25:48;2.70;;;1.10;;
52029;SDS011;38043;53.224;6.580;2023-04-03T16:28:15;3.17;;;1.45;;
52029;SDS011;38043;53.224;6.580;2023-04-03T16:30:42;2.83;;;1.27;;
52029;SDS011;38043;53.224;6.580;2023-04-03T16:33:10;3.13;;;1.33;;
52029;SDS011;38043;53.224;6.580;2023-04-03T16:35:37;5.47;;;1.65;;
52029;SDS011;38043;53.224;6.580;2023-04-03T16:38:03;4.07;;;1.50;;
52029;SDS011;38043;53.224;6.580;2023-04-03T16:40:29;5.03;;;1.50;;
52029;SDS011;38043;53.224;6.580;2023-04-03T16:42:54;3.92;;;1.58;;
52029;SDS011;38043;53.224;6.580;2023-04-03T16:45:20;2.90;;;1.58;;
52029;SDS011;38043;53.224;6.580;2023-04-03T16:47:46;4.38;;;1.67;;
52029;SDS011;38043;53.224;6.580;2023-04-03T16:50:11;3.28;;;1.30;;